createdAt,value
2022-10-17T00:01:30.421Z,101508.67
2022-10-17T00:03:57.245Z,101504.59
2022-10-17T00:06:23.888Z,101505.86
2022-10-17T00:08:50.570Z,101511.30
2022-10-17T00:11:22.770Z,101514.39
2022-10-17T00:13:51.285Z,101512.70
2022-10-17T00:16:27.501Z,101513.79
2022-10-17T00:18:54.532Z,101513.09
2022-10-17T00:21:22.776Z,101515.09
2022-10-17T00:23:49.877Z,101514.19
2022-10-17T00:26:17.436Z,101518.41
2022-10-17T00:28:48.664Z,101513.33
2022-10-17T00:31:17.922Z,101518.42
2022-10-17T00:33:44.954Z,101517.77
2022-10-17T00:36:14.637Z,101525.14
2022-10-17T00:38:45.274Z,101528.75
2022-10-17T00:41:15.085Z,101530.06
2022-10-17T00:44:09.344Z,101527.80
2022-10-17T00:46:38.421Z,101518.56
2022-10-17T00:49:11.921Z,101516.56
2022-10-17T00:52:01.379Z,101515.98
2022-10-17T00:54:33.440Z,101523.25
2022-10-17T00:57:01.400Z,101523.26
2022-10-17T00:59:29.478Z,101519.53
2022-10-17T01:02:08.724Z,101518.75
2022-10-17T01:04:37.213Z,101516.59
2022-10-17T01:07:03.985Z,101514.51
2022-10-17T01:09:30.999Z,101513.84
2022-10-17T01:12:21.630Z,101516.87
2022-10-17T01:14:57.100Z,101516.20
2022-10-17T01:17:42.127Z,101512.02
2022-10-17T01:20:23.756Z,101510.95
2022-10-17T01:23:30.179Z,101507.61
2022-10-17T01:26:27.802Z,101512.14
2022-10-17T01:29:33.087Z,101508.44
2022-10-17T01:32:15.271Z,101507.70
2022-10-17T01:34:50.222Z,101504.92
2022-10-17T01:37:37.548Z,101501.83
2022-10-17T01:40:14.259Z,101503.20
2022-10-17T01:43:04.685Z,101505.23
2022-10-17T01:45:41.787Z,101509.88
2022-10-17T01:48:17.044Z,101512.65
2022-10-17T01:50:54.121Z,101512.67
2022-10-17T01:53:36.531Z,101509.92
2022-10-17T01:56:08.665Z,101510.30
2022-10-17T01:58:52.579Z,101511.89
2022-10-17T02:01:21.595Z,101515.00
2022-10-17T02:03:51.321Z,101521.05
2022-10-17T02:06:17.996Z,101521.15
2022-10-17T02:08:50.256Z,101524.11
2022-10-17T02:11:25.554Z,101527.40
2022-10-17T02:13:57.945Z,101534.03
2022-10-17T02:16:47.399Z,101537.55
2022-10-17T02:20:01.746Z,101536.08
2022-10-17T02:22:51.880Z,101539.77
2022-10-17T02:25:28.243Z,101540.88
2022-10-17T02:28:02.693Z,101543.73
2022-10-17T02:30:36.614Z,101544.52
2022-10-17T02:33:29.860Z,101543.90
2022-10-17T02:36:02.721Z,101544.20
2022-10-17T02:38:31.852Z,101543.52
2022-10-17T02:40:58.985Z,101544.20
2022-10-17T02:43:25.756Z,101547.01
2022-10-17T02:45:53.508Z,101551.53
2022-10-17T02:49:02.328Z,101549.67
2022-10-17T02:51:39.249Z,101550.55
2022-10-17T02:54:22.636Z,101548.23
2022-10-17T02:57:02.352Z,101548.17
2022-10-17T02:59:31.813Z,101545.20
2022-10-17T03:02:03.566Z,101547.36
2022-10-17T03:04:31.587Z,101545.91
2022-10-17T03:06:58.177Z,101544.31
2022-10-17T03:09:25.279Z,101547.65
2022-10-17T03:11:52.063Z,101551.70
2022-10-17T03:14:18.977Z,101554.58
2022-10-17T03:16:46.506Z,101551.42
2022-10-17T03:19:14.361Z,101552.40
2022-10-17T03:21:41.011Z,101555.59
2022-10-17T03:24:08.051Z,101561.75
2022-10-17T03:26:34.928Z,101565.13
2022-10-17T03:29:03.072Z,101567.30
2022-10-17T03:31:30.225Z,101567.69
2022-10-17T03:33:57.150Z,101572.59
2022-10-17T03:36:23.790Z,101577.14
2022-10-17T03:38:54.181Z,101577.68
2022-10-17T03:41:21.507Z,101577.50
2022-10-17T03:43:48.426Z,101581.10
2022-10-17T03:46:15.488Z,101582.62
2022-10-17T03:48:43.149Z,101581.48
2022-10-17T03:51:10.182Z,101580.57
2022-10-17T03:53:43.761Z,101584.30
2022-10-17T03:56:22.261Z,101582.20
2022-10-17T03:58:55.560Z,101577.63
2022-10-17T04:01:23.068Z,101583.42
2022-10-17T04:03:51.584Z,101581.45
2022-10-17T04:06:19.208Z,101580.74
2022-10-17T04:08:46.587Z,101580.92
2022-10-17T04:11:21.346Z,101583.55
2022-10-17T04:13:54.077Z,101581.88
2022-10-17T04:16:21.589Z,101579.88
2022-10-17T04:18:55.709Z,101580.48
2022-10-17T04:21:24.391Z,101577.63
2022-10-17T04:23:56.153Z,101577.04
2022-10-17T04:26:36.199Z,101579.95
2022-10-17T04:29:02.942Z,101578.83
2022-10-17T04:31:29.533Z,101580.31
2022-10-17T04:34:06.972Z,101585.39
2022-10-17T04:36:34.008Z,101588.54
2022-10-17T04:39:03.006Z,101588.17
2022-10-17T04:41:30.319Z,101590.54
2022-10-17T04:43:57.189Z,101593.98
2022-10-17T04:46:24.963Z,101593.23
2022-10-17T04:48:51.633Z,101592.61
2022-10-17T04:51:20.776Z,101599.08
2022-10-17T04:54:08.671Z,101603.84
2022-10-17T04:56:35.983Z,101603.76
2022-10-17T04:59:03.044Z,101606.82
2022-10-17T05:01:30.427Z,101607.59
2022-10-17T05:03:57.379Z,101610.51
2022-10-17T05:06:25.379Z,101611.64
2022-10-17T05:09:07.747Z,101618.32
2022-10-17T05:11:34.389Z,101619.92
2022-10-17T05:14:01.950Z,101626.02
2022-10-17T05:16:30.323Z,101625.90
2022-10-17T05:18:59.074Z,101622.80
2022-10-17T05:21:29.960Z,101623.46
2022-10-17T05:23:57.957Z,101629.48
2022-10-17T05:26:25.667Z,101631.95
2022-10-17T05:28:54.067Z,101630.77
2022-10-17T05:31:22.550Z,101629.76
2022-10-17T05:33:49.371Z,101634.80
2022-10-17T05:36:16.018Z,101634.48
2022-10-17T05:38:43.585Z,101634.67
2022-10-17T05:41:11.338Z,101634.82
2022-10-17T05:43:38.349Z,101638.29
2022-10-17T05:46:06.264Z,101637.55
2022-10-17T05:48:34.233Z,101639.42
2022-10-17T05:51:05.265Z,101642.52
2022-10-17T05:53:34.279Z,101649.23
2022-10-17T05:56:06.505Z,101647.27
2022-10-17T05:58:51.577Z,101648.75
2022-10-17T06:01:28.783Z,101652.19
2022-10-17T06:03:55.883Z,101651.25
2022-10-17T06:06:22.865Z,101652.86
2022-10-17T06:08:50.749Z,101648.62
2022-10-17T06:11:22.632Z,101654.52
2022-10-17T06:13:49.261Z,101658.39
2022-10-17T06:16:21.751Z,101663.00
2022-10-17T06:21:19.991Z,101661.23
2022-10-17T06:23:50.134Z,101664.88
2022-10-17T06:26:25.532Z,101663.32
2022-10-17T06:28:54.274Z,101665.50
2022-10-17T06:31:21.006Z,101666.88
2022-10-17T06:33:47.658Z,101669.79
2022-10-17T06:36:15.109Z,101674.88
2022-10-17T06:38:42.281Z,101677.44
2022-10-17T06:41:18.824Z,101685.70
2022-10-17T06:43:46.862Z,101687.05
2022-10-17T06:46:49.047Z,101691.98
2022-10-17T06:49:17.638Z,101686.95
2022-10-17T06:51:52.267Z,101692.96
2022-10-17T06:54:22.887Z,101696.14
2022-10-17T06:57:09.733Z,101698.56
2022-10-17T06:59:59.420Z,101697.69
2022-10-17T07:02:33.471Z,101700.96
2022-10-17T07:05:01.352Z,101698.06
2022-10-17T07:07:32.120Z,101701.27
2022-10-17T07:09:59.266Z,101703.96
2022-10-17T07:12:25.967Z,101701.50
2022-10-17T07:14:52.619Z,101706.00
2022-10-17T07:17:19.401Z,101708.54
2022-10-17T07:19:46.924Z,101710.08
2022-10-17T07:22:13.574Z,101706.39
2022-10-17T07:24:43.604Z,101708.77
2022-10-17T07:27:45.679Z,101708.09
2022-10-17T07:30:12.637Z,101706.73
2022-10-17T07:32:42.130Z,101713.30
2022-10-17T07:35:10.286Z,101718.34
2022-10-17T07:37:37.723Z,101721.09
2022-10-17T07:40:07.554Z,101720.80
2022-10-17T07:42:36.614Z,101713.83
2022-10-17T07:45:04.181Z,101718.79
2022-10-17T07:47:35.180Z,101717.49
2022-10-17T07:50:03.681Z,101720.50
2022-10-17T07:52:30.560Z,101715.77
2022-10-17T07:54:57.452Z,101710.64
2022-10-17T07:57:24.256Z,101708.27
2022-10-17T07:59:51.181Z,101709.59
2022-10-17T08:02:23.060Z,101705.19
2022-10-17T08:04:50.370Z,101709.20
2022-10-17T08:07:23.069Z,101709.42
2022-10-17T08:09:52.153Z,101712.09
2022-10-17T08:12:18.854Z,101710.64
2022-10-17T08:14:45.444Z,101713.45
2022-10-17T08:17:12.081Z,101714.02
2022-10-17T08:19:39.880Z,101714.88
2022-10-17T08:22:07.174Z,101718.20
2022-10-17T08:24:33.894Z,101711.75
2022-10-17T08:27:00.823Z,101701.39
2022-10-17T08:29:27.630Z,101704.68
2022-10-17T08:31:58.611Z,101708.91
2022-10-17T08:34:28.100Z,101706.63
2022-10-17T08:36:54.764Z,101707.84
2022-10-17T08:39:21.440Z,101704.14
2022-10-17T08:42:18.056Z,101703.09
2022-10-17T08:45:09.922Z,101701.85
2022-10-17T08:47:44.777Z,101704.69
2022-10-17T08:50:34.780Z,101703.64
2022-10-17T08:53:40.678Z,101701.08
2022-10-17T08:56:49.030Z,101703.89
2022-10-17T08:59:28.019Z,101712.09
2022-10-17T09:02:50.292Z,101712.08
2022-10-17T09:05:26.331Z,101717.62
2022-10-17T09:08:16.842Z,101711.00
2022-10-17T09:11:19.422Z,101712.07
2022-10-17T09:14:19.823Z,101718.52
2022-10-17T09:17:03.535Z,101720.95
2022-10-17T09:19:41.043Z,101715.08
2022-10-17T09:22:18.213Z,101719.62
2022-10-17T09:24:56.080Z,101718.73
2022-10-17T09:28:10.602Z,101715.05
2022-10-17T09:30:45.947Z,101718.23
2022-10-17T09:33:35.118Z,101713.61
2022-10-17T09:36:15.873Z,101712.27
2022-10-17T09:38:47.058Z,101711.66
2022-10-17T09:44:33.254Z,101713.00
2022-10-17T09:47:33.261Z,101706.20
2022-10-17T09:50:01.642Z,101709.12
2022-10-17T09:52:35.962Z,101705.16
2022-10-17T09:55:11.220Z,101708.34
2022-10-17T09:57:59.039Z,101695.95
2022-10-17T10:00:32.383Z,101694.52
2022-10-17T10:03:17.014Z,101689.14
2022-10-17T10:05:59.645Z,101688.17
2022-10-17T10:08:30.662Z,101687.60
2022-10-17T10:11:04.108Z,101684.42
2022-10-17T10:13:33.074Z,101687.36
2022-10-17T10:16:15.372Z,101683.98
2022-10-17T10:18:43.308Z,101673.38
2022-10-17T10:21:22.540Z,101672.13
2022-10-17T10:24:08.168Z,101672.23
2022-10-17T10:26:50.246Z,101667.75
2022-10-17T10:29:42.263Z,101667.20
2022-10-17T10:32:25.354Z,101666.48
2022-10-17T10:35:03.339Z,101662.05
2022-10-17T10:37:43.838Z,101659.97
2022-10-17T10:40:51.371Z,101656.35
2022-10-17T10:43:35.627Z,101652.71
2022-10-17T10:46:05.939Z,101650.25
2022-10-17T10:48:37.043Z,101648.35
2022-10-17T10:51:16.900Z,101640.29
2022-10-17T10:53:55.345Z,101645.81
2022-10-17T10:56:31.068Z,101648.11
2022-10-17T10:59:09.814Z,101646.17
2022-10-17T11:01:52.296Z,101650.26
2022-10-17T11:04:52.055Z,101649.35
2022-10-17T11:07:23.964Z,101647.77
2022-10-17T11:10:24.119Z,101647.25
2022-10-17T11:13:15.253Z,101650.92
2022-10-17T11:15:51.744Z,101657.02
2022-10-17T11:18:32.790Z,101658.42
2022-10-17T11:21:05.154Z,101654.95
2022-10-17T11:23:42.421Z,101658.54
2022-10-17T11:26:25.370Z,101658.88
2022-10-17T11:29:04.045Z,101661.05
2022-10-17T11:31:36.493Z,101655.98
2022-10-17T11:34:09.707Z,101652.56
2022-10-17T11:36:39.890Z,101653.27
2022-10-17T11:39:22.308Z,101650.35
2022-10-17T11:42:03.496Z,101649.34
2022-10-17T11:44:35.714Z,101642.47
2022-10-17T11:47:40.053Z,101643.14
2022-10-17T11:53:10.952Z,101642.72
2022-10-17T11:55:38.756Z,101637.31
2022-10-17T12:01:24.143Z,101640.95
2022-10-17T12:04:27.985Z,101634.77
2022-10-17T12:07:16.284Z,101634.89
2022-10-17T12:09:58.781Z,101632.34
2022-10-17T12:12:34.873Z,101630.38
2022-10-17T12:15:20.203Z,101628.25
2022-10-17T12:17:55.786Z,101623.07
2022-10-17T12:20:25.283Z,101623.08
2022-10-17T12:23:29.524Z,101621.94
2022-10-17T12:26:03.278Z,101616.40
2022-10-17T12:28:37.347Z,101615.88
2022-10-17T12:31:16.940Z,101614.52
2022-10-17T12:33:52.299Z,101610.66
2022-10-17T12:36:22.823Z,101612.49
2022-10-17T12:39:01.820Z,101613.41
2022-10-17T12:41:37.939Z,101613.04
2022-10-17T12:44:14.337Z,101613.31
2022-10-17T12:46:51.545Z,101611.23
2022-10-17T12:49:41.836Z,101605.12
2022-10-17T12:52:29.091Z,101602.66
2022-10-17T12:55:12.617Z,101604.05
2022-10-17T12:57:56.134Z,101598.88
2022-10-17T13:00:59.566Z,101595.23
2022-10-17T13:03:34.495Z,101594.60
2022-10-17T13:06:06.958Z,101592.92
2022-10-17T13:08:39.526Z,101595.77
2022-10-17T13:11:07.557Z,101594.34
2022-10-17T13:13:48.425Z,101591.87
2022-10-17T13:16:30.727Z,101596.75
2022-10-17T13:18:59.980Z,101597.53
2022-10-17T13:21:27.276Z,101594.75
2022-10-17T13:23:54.129Z,101597.66
2022-10-17T13:26:24.421Z,101593.40
2022-10-17T13:29:05.950Z,101593.48
2022-10-17T13:31:35.500Z,101589.55
2022-10-17T13:34:05.409Z,101596.58
2022-10-17T13:36:33.973Z,101589.59
2022-10-17T13:39:12.207Z,101588.20
2022-10-17T13:41:41.351Z,101596.01
2022-10-17T13:44:23.870Z,101595.39
2022-10-17T13:46:51.763Z,101600.73
2022-10-17T13:49:30.400Z,101598.44
2022-10-17T13:51:58.763Z,101602.91
2022-10-17T13:54:36.429Z,101603.30
2022-10-17T13:57:04.362Z,101609.65
2022-10-17T13:59:39.465Z,101607.33
2022-10-17T14:02:15.804Z,101606.34
2022-10-17T14:05:11.637Z,101602.55
2022-10-17T14:08:13.010Z,101594.16
2022-10-17T14:10:43.490Z,101595.15
2022-10-17T14:13:26.626Z,101592.23
2022-10-17T14:15:55.200Z,101588.83
2022-10-17T14:18:34.802Z,101589.63
2022-10-17T14:23:51.206Z,101586.83
2022-10-17T14:26:23.124Z,101586.08
2022-10-17T14:29:07.198Z,101586.57
2022-10-17T14:31:36.317Z,101590.69
2022-10-17T14:34:04.366Z,101591.23
2022-10-17T14:36:38.164Z,101588.68
2022-10-17T14:39:11.908Z,101588.21
2022-10-17T14:41:44.368Z,101588.34
2022-10-17T14:44:28.832Z,101586.87
2022-10-17T14:47:30.204Z,101590.02
2022-10-17T14:50:02.050Z,101593.61
2022-10-17T14:52:31.183Z,101592.10
2022-10-17T14:54:59.700Z,101589.44
2022-10-17T14:57:32.452Z,101590.81
2022-10-17T14:59:59.420Z,101591.29
2022-10-17T15:02:28.545Z,101594.24
2022-10-17T15:04:55.878Z,101594.08
2022-10-17T15:07:23.563Z,101591.48
2022-10-17T15:09:52.237Z,101591.82
2022-10-17T15:12:24.529Z,101595.78
2022-10-17T15:14:52.138Z,101598.77
2022-10-17T15:17:22.882Z,101599.38
2022-10-17T15:19:50.083Z,101600.34
2022-10-17T15:22:17.605Z,101604.55
2022-10-17T15:24:45.678Z,101611.96
2022-10-17T15:27:17.676Z,101612.61
2022-10-17T15:29:45.086Z,101611.12
2022-10-17T15:32:11.770Z,101616.16
2022-10-17T15:34:38.664Z,101613.92
2022-10-17T15:37:10.496Z,101618.53
2022-10-17T15:39:37.613Z,101625.69
2022-10-17T15:42:08.357Z,101629.04
2022-10-17T15:44:36.085Z,101631.44
2022-10-17T15:47:03.383Z,101637.27
2022-10-17T15:49:30.021Z,101637.23
2022-10-17T15:51:56.673Z,101636.94
2022-10-17T15:54:23.244Z,101638.70
2022-10-17T15:56:54.407Z,101642.91
2022-10-17T15:59:29.215Z,101647.70
2022-10-17T16:01:56.178Z,101650.48
2022-10-17T16:04:26.157Z,101653.91
2022-10-17T16:06:52.978Z,101650.45
2022-10-17T16:09:19.553Z,101650.60
2022-10-17T16:11:46.212Z,101648.58
2022-10-17T16:14:15.196Z,101648.14
2022-10-17T16:16:42.552Z,101658.03
2022-10-17T16:19:09.159Z,101657.85
2022-10-17T16:21:38.922Z,101658.46
2022-10-17T16:24:06.012Z,101658.71
2022-10-17T16:26:32.654Z,101662.30
2022-10-17T16:29:03.190Z,101662.09
2022-10-17T16:31:33.295Z,101660.38
2022-10-17T16:34:02.476Z,101660.37
2022-10-17T16:36:29.797Z,101664.33
2022-10-17T16:38:56.590Z,101662.76
2022-10-17T16:41:28.611Z,101660.10
2022-10-17T16:43:58.303Z,101663.21
2022-10-17T16:46:26.943Z,101665.66
2022-10-17T16:48:54.799Z,101668.44
2022-10-17T16:51:22.076Z,101664.44
2022-10-17T16:53:52.281Z,101668.04
2022-10-17T16:56:21.342Z,101663.84
2022-10-17T16:58:48.978Z,101664.92
2022-10-17T17:01:20.643Z,101663.11
2022-10-17T17:03:47.985Z,101666.91
2022-10-17T17:06:23.783Z,101668.17
2022-10-17T17:08:50.894Z,101666.25
2022-10-17T17:11:19.745Z,101666.61
2022-10-17T17:13:46.617Z,101667.96
2022-10-17T17:16:20.956Z,101672.35
2022-10-17T17:18:50.960Z,101670.17
2022-10-17T17:21:17.620Z,101670.41
2022-10-17T17:23:44.271Z,101670.80
2022-10-17T17:26:14.135Z,101671.18
2022-10-17T17:28:41.743Z,101674.91
2022-10-17T17:31:12.506Z,101671.94
2022-10-17T17:33:40.287Z,101673.79
2022-10-17T17:36:09.658Z,101675.96
2022-10-17T17:38:36.552Z,101676.91
2022-10-17T17:41:04.100Z,101676.48
2022-10-17T17:43:30.852Z,101677.86
2022-10-17T17:46:01.304Z,101680.39
2022-10-17T17:48:28.425Z,101680.38
2022-10-17T17:50:55.127Z,101677.14
2022-10-17T17:53:21.849Z,101676.91
2022-10-17T17:55:59.788Z,101675.52
2022-10-17T17:58:26.383Z,101678.20
2022-10-17T18:00:53.104Z,101679.79
2022-10-17T18:03:19.724Z,101677.94
2022-10-17T18:05:46.306Z,101673.91
2022-10-17T18:08:12.899Z,101674.04
2022-10-17T18:10:39.490Z,101669.13
2022-10-17T18:13:06.083Z,101671.35
2022-10-17T18:15:32.686Z,101671.67
2022-10-17T18:17:59.567Z,101670.08
2022-10-17T18:20:27.192Z,101671.98
2022-10-17T18:22:53.813Z,101669.04
2022-10-17T18:25:20.813Z,101670.40
2022-10-17T18:27:47.963Z,101673.02
2022-10-17T18:30:15.575Z,101673.70
2022-10-17T18:32:42.337Z,101677.27
2022-10-17T18:35:09.336Z,101674.58
2022-10-17T18:37:36.041Z,101676.46
2022-10-17T18:40:03.289Z,101675.39
2022-10-17T18:42:30.207Z,101670.91
2022-10-17T18:44:57.169Z,101674.65
2022-10-17T18:47:23.981Z,101676.83
2022-10-17T18:49:50.701Z,101677.27
2022-10-17T18:52:17.412Z,101675.16
2022-10-17T18:54:44.300Z,101674.97
2022-10-17T18:57:11.208Z,101668.35
2022-10-17T18:59:37.887Z,101672.89
2022-10-17T19:02:05.412Z,101672.16
2022-10-17T19:04:57.136Z,101671.55
2022-10-17T19:07:23.766Z,101671.51
2022-10-17T19:09:50.399Z,101674.79
2022-10-17T19:12:17.101Z,101676.27
2022-10-17T19:14:43.713Z,101678.67
2022-10-17T19:17:10.407Z,101682.02
2022-10-17T19:19:37.258Z,101683.64
2022-10-17T19:22:04.970Z,101687.05
2022-10-17T19:24:31.581Z,101686.84
2022-10-17T19:27:01.993Z,101687.60
2022-10-17T19:29:32.517Z,101687.66
2022-10-17T19:32:00.446Z,101691.23
2022-10-17T19:34:27.269Z,101690.77
2022-10-17T19:36:55.168Z,101687.55
2022-10-17T19:39:23.298Z,101689.73
2022-10-17T19:41:49.946Z,101691.96
2022-10-17T19:44:17.310Z,101678.66
2022-10-17T19:46:46.125Z,101689.48
2022-10-17T19:49:13.357Z,101683.69
2022-10-17T19:51:40.041Z,101685.39
2022-10-17T19:54:06.653Z,101684.35
2022-10-17T19:56:37.634Z,101683.62
2022-10-17T19:59:05.736Z,101687.47
2022-10-17T20:01:35.229Z,101685.55
2022-10-17T20:04:02.286Z,101684.79
2022-10-17T20:06:28.948Z,101680.55
2022-10-17T20:08:55.743Z,101676.34
2022-10-17T20:11:27.642Z,101673.77
2022-10-17T20:13:55.714Z,101675.88
2022-10-17T20:16:25.347Z,101674.30
2022-10-17T20:18:55.069Z,101673.81
2022-10-17T20:21:27.997Z,101677.52
2022-10-17T20:23:54.989Z,101677.50
2022-10-17T20:26:33.661Z,101675.97
2022-10-17T20:29:11.816Z,101676.73
2022-10-17T20:31:40.416Z,101677.17
2022-10-17T20:34:07.459Z,101676.66
2022-10-17T20:36:36.554Z,101672.10
2022-10-17T20:39:04.203Z,101672.73
2022-10-17T20:41:31.146Z,101671.96
2022-10-17T20:43:57.871Z,101672.73
2022-10-17T20:46:45.189Z,101677.81
2022-10-17T20:49:15.656Z,101674.55
2022-10-17T20:51:42.880Z,101681.13
2022-10-17T20:54:11.079Z,101680.67
2022-10-17T20:56:38.164Z,101675.81
2022-10-17T20:59:07.644Z,101672.81
2022-10-17T21:01:35.713Z,101669.45
2022-10-17T21:04:27.062Z,101671.61
2022-10-17T21:06:51.667Z,101672.05
2022-10-17T21:09:19.199Z,101671.63
2022-10-17T21:11:46.071Z,101671.30
2022-10-17T21:14:12.790Z,101668.34
2022-10-17T21:16:40.759Z,101668.94
2022-10-17T21:19:07.330Z,101664.09
2022-10-17T21:21:37.003Z,101661.91
2022-10-17T21:24:06.373Z,101661.56
2022-10-17T21:26:35.224Z,101660.53
2022-10-17T21:29:05.166Z,101660.05
2022-10-17T21:31:37.068Z,101661.30
2022-10-17T21:34:13.242Z,101662.04
2022-10-17T21:36:40.967Z,101667.66
2022-10-17T21:41:39.881Z,101670.70
2022-10-17T21:44:12.291Z,101670.66
2022-10-17T21:46:38.954Z,101670.70
2022-10-17T21:49:05.825Z,101665.69
2022-10-17T21:51:32.650Z,101663.56
2022-10-17T21:53:59.269Z,101658.92
2022-10-17T21:56:28.095Z,101662.41
2022-10-17T21:58:55.282Z,101663.60
2022-10-17T22:01:24.760Z,101664.66
2022-10-17T22:03:54.565Z,101662.77
2022-10-17T22:09:19.491Z,101659.52
2022-10-17T22:11:48.513Z,101658.59
2022-10-17T22:14:17.484Z,101657.44
2022-10-17T22:16:45.790Z,101656.26
2022-10-17T22:19:14.388Z,101657.56
2022-10-17T22:21:41.023Z,101660.38
2022-10-17T22:24:10.265Z,101659.05
2022-10-17T22:26:37.774Z,101660.47
2022-10-17T22:29:06.655Z,101658.57
2022-10-17T22:31:34.652Z,101650.25
2022-10-17T22:34:01.619Z,101650.62
2022-10-17T22:36:28.711Z,101655.99
2022-10-17T22:38:55.374Z,101657.12
2022-10-17T22:41:22.515Z,101660.28
2022-10-17T22:43:49.126Z,101657.32
2022-10-17T22:46:16.403Z,101653.86
2022-10-17T22:48:43.526Z,101650.19
2022-10-17T22:51:10.514Z,101648.44
2022-10-17T22:53:37.293Z,101642.67
2022-10-17T22:56:15.456Z,101642.75
2022-10-17T22:58:42.576Z,101638.44
2022-10-17T23:01:14.460Z,101640.41
2022-10-17T23:03:41.630Z,101635.39
2022-10-17T23:06:08.589Z,101632.80
2022-10-17T23:08:35.901Z,101631.36
2022-10-17T23:11:02.823Z,101637.02
2022-10-17T23:13:29.496Z,101633.83
2022-10-17T23:15:56.915Z,101629.77
2022-10-17T23:18:25.902Z,101626.27
2022-10-17T23:20:53.030Z,101623.34
2022-10-17T23:23:20.441Z,101625.38
2022-10-17T23:25:48.836Z,101621.20
2022-10-17T23:28:15.814Z,101619.89
2022-10-17T23:30:42.464Z,101620.98
2022-10-17T23:33:11.939Z,101621.35
2022-10-17T23:35:38.612Z,101616.99
2022-10-17T23:38:05.312Z,101612.93
2022-10-17T23:40:32.415Z,101614.63
2022-10-17T23:42:59.040Z,101613.20
2022-10-17T23:45:25.805Z,101604.64
2022-10-17T23:47:52.398Z,101602.35
2022-10-17T23:50:19.008Z,101600.84
2022-10-17T23:52:45.652Z,101603.16
2022-10-17T23:55:12.288Z,101603.17
2022-10-17T23:57:38.888Z,101603.86
